sensor_id;sensor_type;location;lat;lon;timestamp;P1;durP1;ratioP1;P2;durP2;ratioP2
46377;SDS011;32083;47.360;9.650;2023-06-14T04:03:16;6.35;;;5.78;;
46377;SDS011;32083;47.360;9.650;2023-06-14T04:05:42;8.25;;;5.72;;
46377;SDS011;32083;47.360;9.650;2023-06-14T04:08:08;6.80;;;5.75;;
46377;SDS011;32083;47.360;9.650;2023-06-14T04:10:35;9.98;;;6.80;;
46377;SDS011;32083;47.360;9.650;2023-06-14T04:23:22;7.75;;;6.07;;
46377;SDS011;32083;47.360;9.650;2023-06-14T04:25:48;7.03;;;6.25;;
46377;SDS011;32083;47.360;9.650;2023-06-14T04:28:14;11.70;;;7.18;;
46377;SDS011;32083;47.360;9.650;2023-06-14T04:30:42;6.30;;;5.70;;
46377;SDS011;32083;47.360;9.650;2023-06-14T04:33:09;9.98;;;5.90;;
46377;SDS011;32083;47.360;9.650;2023-06-14T04:35:36;8.75;;;5.82;;
46377;SDS011;32083;47.360;9.650;2023-06-14T04:38:03;6.80;;;5.93;;
46377;SDS011;32083;47.360;9.650;2023-06-14T04:40:35;9.83;;;5.67;;
46377;SDS011;32083;47.360;9.650;2023-06-14T04:43:08;8.82;;;5.97;;
46377;SDS011;32083;47.360;9.650;2023-06-14T04:45:38;8.68;;;6.30;;
46377;SDS011;32083;47.360;9.650;2023-06-14T04:48:05;7.45;;;6.13;;
46377;SDS011;32083;47.360;9.650;2023-06-14T04:50:32;7.82;;;6.15;;
46377;SDS011;32083;47.360;9.650;2023-06-14T04:52:58;7.30;;;6.35;;
46377;SDS011;32083;47.360;9.650;2023-06-14T04:55:25;8.55;;;6.35;;
46377;SDS011;32083;47.360;9.650;2023-06-14T04:57:51;7.20;;;5.53;;
46377;SDS011;32083;47.360;9.650;2023-06-14T05:00:33;8.48;;;5.43;;
46377;SDS011;32083;47.360;9.650;2023-06-14T05:27:00;7.35;;;4.95;;
46377;SDS011;32083;47.360;9.650;2023-06-14T05:29:26;6.40;;;5.40;;
46377;SDS011;32083;47.360;9.650;2023-06-14T05:31:52;8.48;;;5.35;;
46377;SDS011;32083;47.360;9.650;2023-06-14T05:34:18;6.85;;;5.20;;
46377;SDS011;32083;47.360;9.650;2023-06-14T05:36:44;6.97;;;5.18;;
46377;SDS011;32083;47.360;9.650;2023-06-14T05:39:10;6.05;;;4.95;;
46377;SDS011;32083;47.360;9.650;2023-06-14T05:41:36;5.43;;;4.78;;
46377;SDS011;32083;47.360;9.650;2023-06-14T05:44:02;7.70;;;5.05;;
46377;SDS011;32083;47.360;9.650;2023-06-14T05:46:28;5.93;;;5.28;;
46377;SDS011;32083;47.360;9.650;2023-06-14T05:48:55;7.80;;;5.25;;
46377;SDS011;32083;47.360;9.650;2023-06-14T05:51:21;8.50;;;5.82;;
46377;SDS011;32083;47.360;9.650;2023-06-14T05:53:50;7.00;;;4.93;;
46377;SDS011;32083;47.360;9.650;2023-06-14T05:56:17;6.53;;;4.40;;
46377;SDS011;32083;47.360;9.650;2023-06-14T05:58:43;6.35;;;5.07;;
46377;SDS011;32083;47.360;9.650;2023-06-14T06:01:10;7.15;;;4.90;;
46377;SDS011;32083;47.360;9.650;2023-06-14T06:03:36;6.43;;;4.05;;
46377;SDS011;32083;47.360;9.650;2023-06-14T06:06:02;5.07;;;4.47;;
46377;SDS011;32083;47.360;9.650;2023-06-14T06:08:28;7.53;;;4.60;;
46377;SDS011;32083;47.360;9.650;2023-06-14T06:10:55;7.07;;;5.25;;
46377;SDS011;32083;47.360;9.650;2023-06-14T06:13:21;7.35;;;4.18;;
46377;SDS011;32083;47.360;9.650;2023-06-14T06:15:47;8.35;;;5.63;;
46377;SDS011;32083;47.360;9.650;2023-06-14T06:18:13;9.45;;;5.22;;
46377;SDS011;32083;47.360;9.650;2023-06-14T06:20:39;10.05;;;4.43;;
46377;SDS011;32083;47.360;9.650;2023-06-14T06:23:05;8.18;;;5.43;;
46377;SDS011;32083;47.360;9.650;2023-06-14T06:25:32;7.25;;;4.50;;
46377;SDS011;32083;47.360;9.650;2023-06-14T06:27:58;8.95;;;4.80;;
46377;SDS011;32083;47.360;9.650;2023-06-14T06:30:24;6.45;;;4.40;;
46377;SDS011;32083;47.360;9.650;2023-06-14T06:32:51;8.75;;;5.43;;
46377;SDS011;32083;47.360;9.650;2023-06-14T06:35:18;9.93;;;5.43;;
46377;SDS011;32083;47.360;9.650;2023-06-14T06:37:44;5.22;;;3.97;;
46377;SDS011;32083;47.360;9.650;2023-06-14T06:40:10;8.55;;;4.38;;
46377;SDS011;32083;47.360;9.650;2023-06-14T06:42:36;5.78;;;4.70;;
46377;SDS011;32083;47.360;9.650;2023-06-14T06:45:02;6.97;;;5.40;;
46377;SDS011;32083;47.360;9.650;2023-06-14T06:47:28;4.57;;;4.18;;
46377;SDS011;32083;47.360;9.650;2023-06-14T06:49:55;8.18;;;4.70;;
46377;SDS011;32083;47.360;9.650;2023-06-14T06:52:21;6.47;;;4.43;;
46377;SDS011;32083;47.360;9.650;2023-06-14T06:54:47;5.65;;;5.15;;
46377;SDS011;32083;47.360;9.650;2023-06-14T06:57:14;8.25;;;4.63;;
46377;SDS011;32083;47.360;9.650;2023-06-14T06:59:40;7.85;;;4.78;;
46377;SDS011;32083;47.360;9.650;2023-06-14T07:02:06;9.43;;;5.65;;
46377;SDS011;32083;47.360;9.650;2023-06-14T07:04:32;6.18;;;4.32;;
46377;SDS011;32083;47.360;9.650;2023-06-14T07:06:58;17.90;;;5.20;;
46377;SDS011;32083;47.360;9.650;2023-06-14T07:09:24;14.02;;;5.05;;
46377;SDS011;32083;47.360;9.650;2023-06-14T07:11:50;6.55;;;4.10;;
46377;SDS011;32083;47.360;9.650;2023-06-14T07:14:16;12.35;;;5.25;;
46377;SDS011;32083;47.360;9.650;2023-06-14T07:16:42;7.63;;;4.68;;
46377;SDS011;32083;47.360;9.650;2023-06-14T07:19:08;5.07;;;4.28;;
46377;SDS011;32083;47.360;9.650;2023-06-14T07:21:35;9.40;;;5.40;;
46377;SDS011;32083;47.360;9.650;2023-06-14T07:24:05;6.68;;;4.13;;
46377;SDS011;32083;47.360;9.650;2023-06-14T07:26:31;4.90;;;3.97;;
46377;SDS011;32083;47.360;9.650;2023-06-14T07:28:57;10.73;;;4.80;;
46377;SDS011;32083;47.360;9.650;2023-06-14T07:31:23;4.65;;;3.97;;
46377;SDS011;32083;47.360;9.650;2023-06-14T07:33:49;5.35;;;4.72;;
46377;SDS011;32083;47.360;9.650;2023-06-14T07:36:15;6.43;;;4.50;;
46377;SDS011;32083;47.360;9.650;2023-06-14T07:38:42;18.65;;;4.25;;
46377;SDS011;32083;47.360;9.650;2023-06-14T07:41:09;5.75;;;4.20;;
46377;SDS011;32083;47.360;9.650;2023-06-14T07:43:35;6.30;;;4.68;;
46377;SDS011;32083;47.360;9.650;2023-06-14T07:46:01;11.48;;;5.05;;
46377;SDS011;32083;47.360;9.650;2023-06-14T07:48:27;4.47;;;4.07;;
46377;SDS011;32083;47.360;9.650;2023-06-14T07:50:53;8.90;;;5.63;;
46377;SDS011;32083;47.360;9.650;2023-06-14T07:53:20;5.07;;;3.95;;
46377;SDS011;32083;47.360;9.650;2023-06-14T07:55:46;8.38;;;4.57;;
46377;SDS011;32083;47.360;9.650;2023-06-14T07:58:13;6.55;;;5.22;;
46377;SDS011;32083;47.360;9.650;2023-06-14T08:00:39;8.68;;;4.55;;
46377;SDS011;32083;47.360;9.650;2023-06-14T08:03:05;9.38;;;4.90;;
46377;SDS011;32083;47.360;9.650;2023-06-14T08:05:31;7.72;;;4.80;;
46377;SDS011;32083;47.360;9.650;2023-06-14T08:07:57;4.80;;;4.32;;
46377;SDS011;32083;47.360;9.650;2023-06-14T08:10:23;7.90;;;5.03;;
46377;SDS011;32083;47.360;9.650;2023-06-14T08:12:49;5.38;;;4.70;;
46377;SDS011;32083;47.360;9.650;2023-06-14T08:15:16;7.40;;;4.93;;
46377;SDS011;32083;47.360;9.650;2023-06-14T08:17:45;8.88;;;5.38;;
46377;SDS011;32083;47.360;9.650;2023-06-14T08:20:12;9.13;;;4.57;;
46377;SDS011;32083;47.360;9.650;2023-06-14T08:22:42;5.78;;;5.00;;
46377;SDS011;32083;47.360;9.650;2023-06-14T08:25:08;7.60;;;4.65;;
46377;SDS011;32083;47.360;9.650;2023-06-14T08:27:34;6.40;;;4.18;;
46377;SDS011;32083;47.360;9.650;2023-06-14T08:30:00;4.95;;;4.47;;
46377;SDS011;32083;47.360;9.650;2023-06-14T08:32:27;5.00;;;4.30;;
46377;SDS011;32083;47.360;9.650;2023-06-14T08:34:53;5.35;;;4.60;;
46377;SDS011;32083;47.360;9.650;2023-06-14T08:37:19;6.35;;;4.65;;
46377;SDS011;32083;47.360;9.650;2023-06-14T08:39:45;7.15;;;4.15;;
46377;SDS011;32083;47.360;9.650;2023-06-14T08:42:11;8.00;;;4.53;;
46377;SDS011;32083;47.360;9.650;2023-06-14T08:44:39;6.60;;;5.82;;
46377;SDS011;32083;47.360;9.650;2023-06-14T08:47:05;8.73;;;4.70;;
46377;SDS011;32083;47.360;9.650;2023-06-14T08:49:33;6.85;;;4.35;;
46377;SDS011;32083;47.360;9.650;2023-06-14T08:52:03;5.95;;;4.18;;
46377;SDS011;32083;47.360;9.650;2023-06-14T08:54:33;6.45;;;4.28;;
46377;SDS011;32083;47.360;9.650;2023-06-14T08:57:02;5.72;;;4.18;;
46377;SDS011;32083;47.360;9.650;2023-06-14T08:59:32;7.47;;;5.00;;
46377;SDS011;32083;47.360;9.650;2023-06-14T09:02:04;3.97;;;3.57;;
46377;SDS011;32083;47.360;9.650;2023-06-14T09:04:31;4.93;;;3.80;;
46377;SDS011;32083;47.360;9.650;2023-06-14T09:06:58;5.50;;;4.53;;
46377;SDS011;32083;47.360;9.650;2023-06-14T09:09:24;10.02;;;4.82;;
46377;SDS011;32083;47.360;9.650;2023-06-14T09:11:53;5.70;;;4.30;;
46377;SDS011;32083;47.360;9.650;2023-06-14T09:14:19;5.97;;;4.65;;
46377;SDS011;32083;47.360;9.650;2023-06-14T09:16:46;8.45;;;4.55;;
46377;SDS011;32083;47.360;9.650;2023-06-14T09:19:14;4.43;;;4.03;;
46377;SDS011;32083;47.360;9.650;2023-06-14T09:21:50;10.23;;;4.80;;
46377;SDS011;32083;47.360;9.650;2023-06-14T09:24:18;4.22;;;3.50;;
46377;SDS011;32083;47.360;9.650;2023-06-14T09:26:46;4.43;;;3.75;;
46377;SDS011;32083;47.360;9.650;2023-06-14T09:29:12;8.90;;;4.20;;
46377;SDS011;32083;47.360;9.650;2023-06-14T09:31:39;6.85;;;4.30;;
46377;SDS011;32083;47.360;9.650;2023-06-14T09:34:05;5.75;;;3.60;;
46377;SDS011;32083;47.360;9.650;2023-06-14T09:36:31;9.10;;;4.82;;
46377;SDS011;32083;47.360;9.650;2023-06-14T09:38:58;6.03;;;4.20;;
46377;SDS011;32083;47.360;9.650;2023-06-14T09:44:05;4.22;;;3.83;;
46377;SDS011;32083;47.360;9.650;2023-06-14T09:46:35;6.00;;;4.68;;
46377;SDS011;32083;47.360;9.650;2023-06-14T09:49:03;10.98;;;4.78;;
46377;SDS011;32083;47.360;9.650;2023-06-14T09:51:30;10.68;;;5.07;;
46377;SDS011;32083;47.360;9.650;2023-06-14T09:53:58;5.72;;;4.22;;
46377;SDS011;32083;47.360;9.650;2023-06-14T09:56:29;6.03;;;5.10;;
46377;SDS011;32083;47.360;9.650;2023-06-14T09:59:06;6.80;;;4.00;;
46377;SDS011;32083;47.360;9.650;2023-06-14T10:01:35;5.75;;;4.30;;
46377;SDS011;32083;47.360;9.650;2023-06-14T10:04:07;5.60;;;4.13;;
46377;SDS011;32083;47.360;9.650;2023-06-14T10:06:43;6.28;;;4.03;;
46377;SDS011;32083;47.360;9.650;2023-06-14T10:09:11;5.63;;;4.22;;
46377;SDS011;32083;47.360;9.650;2023-06-14T10:11:38;10.90;;;4.70;;
46377;SDS011;32083;47.360;9.650;2023-06-14T10:14:09;6.60;;;4.32;;
46377;SDS011;32083;47.360;9.650;2023-06-14T10:16:46;8.95;;;4.45;;
46377;SDS011;32083;47.360;9.650;2023-06-14T10:19:18;6.78;;;4.35;;
46377;SDS011;32083;47.360;9.650;2023-06-14T10:21:58;7.35;;;4.70;;
46377;SDS011;32083;47.360;9.650;2023-06-14T10:24:48;5.65;;;4.45;;
46377;SDS011;32083;47.360;9.650;2023-06-14T10:27:15;7.53;;;4.70;;
46377;SDS011;32083;47.360;9.650;2023-06-14T10:32:27;5.80;;;4.80;;
46377;SDS011;32083;47.360;9.650;2023-06-14T10:34:54;6.90;;;4.40;;
46377;SDS011;32083;47.360;9.650;2023-06-14T10:37:20;6.75;;;3.67;;
46377;SDS011;32083;47.360;9.650;2023-06-14T10:39:46;4.82;;;3.92;;
46377;SDS011;32083;47.360;9.650;2023-06-14T10:42:13;14.23;;;4.38;;
46377;SDS011;32083;47.360;9.650;2023-06-14T10:44:49;5.07;;;4.00;;
46377;SDS011;32083;47.360;9.650;2023-06-14T10:49:53;7.53;;;4.68;;
46377;SDS011;32083;47.360;9.650;2023-06-14T10:52:22;4.53;;;4.13;;
46377;SDS011;32083;47.360;9.650;2023-06-14T10:57:25;6.55;;;4.90;;
46377;SDS011;32083;47.360;9.650;2023-06-14T10:59:51;5.75;;;4.57;;
46377;SDS011;32083;47.360;9.650;2023-06-14T11:05:15;4.55;;;3.58;;
46377;SDS011;32083;47.360;9.650;2023-06-14T11:13:10;5.72;;;4.25;;
46377;SDS011;32083;47.360;9.650;2023-06-14T11:15:37;16.52;;;5.10;;
46377;SDS011;32083;47.360;9.650;2023-06-14T11:18:07;8.55;;;3.83;;
46377;SDS011;32083;47.360;9.650;2023-06-14T11:20:36;5.32;;;3.72;;
46377;SDS011;32083;47.360;9.650;2023-06-14T11:23:03;5.90;;;3.80;;
46377;SDS011;32083;47.360;9.650;2023-06-14T11:25:30;4.97;;;3.75;;
46377;SDS011;32083;47.360;9.650;2023-06-14T11:27:56;8.13;;;4.68;;
46377;SDS011;32083;47.360;9.650;2023-06-14T11:30:22;4.53;;;3.97;;
46377;SDS011;32083;47.360;9.650;2023-06-14T11:32:51;7.20;;;3.53;;
46377;SDS011;32083;47.360;9.650;2023-06-14T11:35:19;6.72;;;4.20;;
46377;SDS011;32083;47.360;9.650;2023-06-14T11:37:48;5.57;;;4.00;;
46377;SDS011;32083;47.360;9.650;2023-06-14T11:40:17;4.22;;;3.83;;
46377;SDS011;32083;47.360;9.650;2023-06-14T11:42:43;4.80;;;4.18;;
46377;SDS011;32083;47.360;9.650;2023-06-14T11:45:09;7.50;;;3.97;;
46377;SDS011;32083;47.360;9.650;2023-06-14T11:47:37;6.28;;;3.78;;
46377;SDS011;32083;47.360;9.650;2023-06-14T11:50:05;4.22;;;3.75;;
46377;SDS011;32083;47.360;9.650;2023-06-14T11:52:33;4.10;;;3.75;;
46377;SDS011;32083;47.360;9.650;2023-06-14T11:55:00;6.25;;;4.55;;
46377;SDS011;32083;47.360;9.650;2023-06-14T11:57:30;4.28;;;3.65;;
46377;SDS011;32083;47.360;9.650;2023-06-14T11:59:58;18.00;;;5.55;;
46377;SDS011;32083;47.360;9.650;2023-06-14T12:02:24;4.53;;;3.78;;
46377;SDS011;32083;47.360;9.650;2023-06-14T12:04:52;5.28;;;3.70;;
46377;SDS011;32083;47.360;9.650;2023-06-14T12:07:19;5.07;;;3.97;;
46377;SDS011;32083;47.360;9.650;2023-06-14T12:12:22;5.63;;;3.63;;
46377;SDS011;32083;47.360;9.650;2023-06-14T12:14:50;7.07;;;4.70;;
46377;SDS011;32083;47.360;9.650;2023-06-14T12:17:17;6.63;;;3.63;;
46377;SDS011;32083;47.360;9.650;2023-06-14T12:19:44;8.95;;;3.72;;
46377;SDS011;32083;47.360;9.650;2023-06-14T12:22:11;8.55;;;4.00;;
46377;SDS011;32083;47.360;9.650;2023-06-14T12:24:37;6.43;;;3.30;;
46377;SDS011;32083;47.360;9.650;2023-06-14T12:27:04;9.13;;;4.75;;
46377;SDS011;32083;47.360;9.650;2023-06-14T12:29:31;6.78;;;3.92;;
46377;SDS011;32083;47.360;9.650;2023-06-14T12:31:57;9.20;;;4.43;;
46377;SDS011;32083;47.360;9.650;2023-06-14T12:34:23;6.75;;;3.83;;
46377;SDS011;32083;47.360;9.650;2023-06-14T12:36:50;4.78;;;3.13;;
46377;SDS011;32083;47.360;9.650;2023-06-14T12:39:16;4.80;;;3.63;;
46377;SDS011;32083;47.360;9.650;2023-06-14T12:41:43;5.78;;;3.85;;
46377;SDS011;32083;47.360;9.650;2023-06-14T12:44:09;5.75;;;3.35;;
46377;SDS011;32083;47.360;9.650;2023-06-14T12:46:36;5.10;;;4.00;;
46377;SDS011;32083;47.360;9.650;2023-06-14T12:49:02;4.72;;;4.03;;
46377;SDS011;32083;47.360;9.650;2023-06-14T12:51:28;4.63;;;3.38;;
46377;SDS011;32083;47.360;9.650;2023-06-14T12:53:54;8.43;;;4.22;;
46377;SDS011;32083;47.360;9.650;2023-06-14T12:56:20;4.47;;;3.40;;
46377;SDS011;32083;47.360;9.650;2023-06-14T12:58:46;4.82;;;3.38;;
46377;SDS011;32083;47.360;9.650;2023-06-14T13:01:12;4.30;;;3.13;;
46377;SDS011;32083;47.360;9.650;2023-06-14T13:03:38;5.32;;;3.80;;
46377;SDS011;32083;47.360;9.650;2023-06-14T13:06:04;4.35;;;3.55;;
46377;SDS011;32083;47.360;9.650;2023-06-14T13:08:30;9.60;;;4.35;;
46377;SDS011;32083;47.360;9.650;2023-06-14T13:10:56;7.80;;;3.47;;
46377;SDS011;32083;47.360;9.650;2023-06-14T13:13:22;5.47;;;3.63;;
46377;SDS011;32083;47.360;9.650;2023-06-14T13:15:49;4.15;;;3.58;;
46377;SDS011;32083;47.360;9.650;2023-06-14T13:18:15;6.45;;;4.40;;
46377;SDS011;32083;47.360;9.650;2023-06-14T13:20:42;3.78;;;3.38;;
46377;SDS011;32083;47.360;9.650;2023-06-14T13:23:08;4.05;;;3.30;;
46377;SDS011;32083;47.360;9.650;2023-06-14T13:25:35;5.47;;;3.22;;
46377;SDS011;32083;47.360;9.650;2023-06-14T13:28:03;5.75;;;3.45;;
46377;SDS011;32083;47.360;9.650;2023-06-14T13:30:29;8.40;;;3.95;;
46377;SDS011;32083;47.360;9.650;2023-06-14T13:32:56;5.63;;;4.65;;
46377;SDS011;32083;47.360;9.650;2023-06-14T13:35:22;5.35;;;3.60;;
46377;SDS011;32083;47.360;9.650;2023-06-14T13:37:49;6.93;;;3.50;;
46377;SDS011;32083;47.360;9.650;2023-06-14T13:40:15;6.63;;;3.85;;
46377;SDS011;32083;47.360;9.650;2023-06-14T13:42:41;15.07;;;5.22;;
46377;SDS011;32083;47.360;9.650;2023-06-14T13:45:07;6.53;;;3.65;;
46377;SDS011;32083;47.360;9.650;2023-06-14T13:47:35;5.57;;;3.58;;
46377;SDS011;32083;47.360;9.650;2023-06-14T13:50:01;8.57;;;3.92;;
46377;SDS011;32083;47.360;9.650;2023-06-14T13:52:28;6.60;;;3.47;;
46377;SDS011;32083;47.360;9.650;2023-06-14T13:54:54;6.75;;;4.10;;
46377;SDS011;32083;47.360;9.650;2023-06-14T13:57:20;5.70;;;3.17;;
46377;SDS011;32083;47.360;9.650;2023-06-14T13:59:46;6.18;;;3.75;;
46377;SDS011;32083;47.360;9.650;2023-06-14T14:02:12;5.88;;;3.80;;
46377;SDS011;32083;47.360;9.650;2023-06-14T14:04:38;3.75;;;3.45;;
46377;SDS011;32083;47.360;9.650;2023-06-14T14:07:05;4.63;;;3.60;;
46377;SDS011;32083;47.360;9.650;2023-06-14T14:09:32;4.05;;;3.58;;
46377;SDS011;32083;47.360;9.650;2023-06-14T14:11:59;6.40;;;3.85;;
46377;SDS011;32083;47.360;9.650;2023-06-14T14:14:26;7.63;;;3.80;;
46377;SDS011;32083;47.360;9.650;2023-06-14T14:16:53;4.47;;;3.15;;
46377;SDS011;32083;47.360;9.650;2023-06-14T14:19:23;3.78;;;3.35;;
46377;SDS011;32083;47.360;9.650;2023-06-14T14:21:49;5.30;;;3.40;;
46377;SDS011;32083;47.360;9.650;2023-06-14T14:24:15;4.47;;;3.63;;
46377;SDS011;32083;47.360;9.650;2023-06-14T14:26:41;9.48;;;3.95;;
46377;SDS011;32083;47.360;9.650;2023-06-14T14:29:08;6.47;;;3.88;;
46377;SDS011;32083;47.360;9.650;2023-06-14T14:31:36;6.28;;;3.67;;
46377;SDS011;32083;47.360;9.650;2023-06-14T14:34:02;5.72;;;3.88;;
46377;SDS011;32083;47.360;9.650;2023-06-14T14:36:28;6.80;;;3.55;;
46377;SDS011;32083;47.360;9.650;2023-06-14T14:38:54;4.25;;;3.03;;
46377;SDS011;32083;47.360;9.650;2023-06-14T14:41:20;4.05;;;3.47;;
46377;SDS011;32083;47.360;9.650;2023-06-14T14:43:46;6.13;;;3.30;;
46377;SDS011;32083;47.360;9.650;2023-06-14T14:46:12;7.30;;;3.90;;
46377;SDS011;32083;47.360;9.650;2023-06-14T14:48:38;6.38;;;3.70;;
46377;SDS011;32083;47.360;9.650;2023-06-14T14:51:04;6.47;;;3.83;;
46377;SDS011;32083;47.360;9.650;2023-06-14T14:53:30;4.15;;;3.40;;
46377;SDS011;32083;47.360;9.650;2023-06-14T14:55:56;5.75;;;3.65;;
46377;SDS011;32083;47.360;9.650;2023-06-14T14:58:21;6.18;;;3.50;;
46377;SDS011;32083;47.360;9.650;2023-06-14T15:00:47;7.82;;;3.47;;
46377;SDS011;32083;47.360;9.650;2023-06-14T15:03:14;4.93;;;3.67;;
46377;SDS011;32083;47.360;9.650;2023-06-14T15:05:40;5.95;;;3.47;;
46377;SDS011;32083;47.360;9.650;2023-06-14T15:08:06;6.32;;;4.72;;
46377;SDS011;32083;47.360;9.650;2023-06-14T15:10:38;4.78;;;3.90;;
46377;SDS011;32083;47.360;9.650;2023-06-14T15:13:06;4.90;;;3.13;;
46377;SDS011;32083;47.360;9.650;2023-06-14T15:15:33;5.13;;;3.28;;
46377;SDS011;32083;47.360;9.650;2023-06-14T15:17:59;9.70;;;3.60;;
46377;SDS011;32083;47.360;9.650;2023-06-14T15:20:25;5.38;;;3.55;;
46377;SDS011;32083;47.360;9.650;2023-06-14T15:22:52;5.22;;;3.45;;
46377;SDS011;32083;47.360;9.650;2023-06-14T15:25:20;6.07;;;3.38;;
46377;SDS011;32083;47.360;9.650;2023-06-14T15:27:46;4.18;;;3.10;;
46377;SDS011;32083;47.360;9.650;2023-06-14T15:30:12;7.38;;;4.00;;
46377;SDS011;32083;47.360;9.650;2023-06-14T15:32:38;4.47;;;3.42;;
46377;SDS011;32083;47.360;9.650;2023-06-14T15:35:04;4.45;;;3.70;;
46377;SDS011;32083;47.360;9.650;2023-06-14T15:37:31;3.78;;;3.20;;
46377;SDS011;32083;47.360;9.650;2023-06-14T15:39:56;6.00;;;3.60;;
46377;SDS011;32083;47.360;9.650;2023-06-14T15:42:22;9.35;;;3.92;;
46377;SDS011;32083;47.360;9.650;2023-06-14T15:44:48;5.10;;;3.20;;
46377;SDS011;32083;47.360;9.650;2023-06-14T15:47:14;5.30;;;4.03;;
46377;SDS011;32083;47.360;9.650;2023-06-14T15:49:40;7.10;;;3.13;;
46377;SDS011;32083;47.360;9.650;2023-06-14T15:52:06;3.65;;;3.00;;
46377;SDS011;32083;47.360;9.650;2023-06-14T15:54:33;4.70;;;3.15;;
46377;SDS011;32083;47.360;9.650;2023-06-14T15:56:58;4.75;;;3.67;;
46377;SDS011;32083;47.360;9.650;2023-06-14T15:59:25;5.43;;;3.08;;
46377;SDS011;32083;47.360;9.650;2023-06-14T16:01:53;5.10;;;3.17;;
46377;SDS011;32083;47.360;9.650;2023-06-14T16:04:19;4.72;;;3.28;;
46377;SDS011;32083;47.360;9.650;2023-06-14T16:06:45;4.05;;;3.20;;
46377;SDS011;32083;47.360;9.650;2023-06-14T16:09:11;6.10;;;3.20;;
46377;SDS011;32083;47.360;9.650;2023-06-14T16:11:37;6.78;;;2.95;;
46377;SDS011;32083;47.360;9.650;2023-06-14T16:14:03;4.10;;;3.67;;
46377;SDS011;32083;47.360;9.650;2023-06-14T16:16:29;8.73;;;3.30;;
46377;SDS011;32083;47.360;9.650;2023-06-14T16:18:55;6.60;;;3.28;;
46377;SDS011;32083;47.360;9.650;2023-06-14T16:21:21;3.53;;;3.22;;
46377;SDS011;32083;47.360;9.650;2023-06-14T16:23:47;5.88;;;3.40;;
46377;SDS011;32083;47.360;9.650;2023-06-14T16:26:13;4.22;;;2.90;;
46377;SDS011;32083;47.360;9.650;2023-06-14T16:28:40;4.65;;;3.08;;
46377;SDS011;32083;47.360;9.650;2023-06-14T16:31:10;8.10;;;3.22;;
46377;SDS011;32083;47.360;9.650;2023-06-14T16:33:42;5.35;;;3.35;;
46377;SDS011;32083;47.360;9.650;2023-06-14T16:36:08;8.13;;;3.80;;
46377;SDS011;32083;47.360;9.650;2023-06-14T16:38:34;7.35;;;3.45;;
46377;SDS011;32083;47.360;9.650;2023-06-14T16:41:00;5.63;;;3.22;;
46377;SDS011;32083;47.360;9.650;2023-06-14T16:43:26;3.88;;;3.50;;
46377;SDS011;32083;47.360;9.650;2023-06-14T16:45:52;4.03;;;3.30;;
46377;SDS011;32083;47.360;9.650;2023-06-14T16:48:18;3.88;;;3.47;;
46377;SDS011;32083;47.360;9.650;2023-06-14T16:50:45;3.65;;;3.03;;
46377;SDS011;32083;47.360;9.650;2023-06-14T16:53:11;5.10;;;3.20;;
46377;SDS011;32083;47.360;9.650;2023-06-14T16:55:37;6.20;;;3.15;;
46377;SDS011;32083;47.360;9.650;2023-06-14T16:58:03;5.22;;;3.42;;
46377;SDS011;32083;47.360;9.650;2023-06-14T17:00:29;7.53;;;3.13;;
46377;SDS011;32083;47.360;9.650;2023-06-14T17:02:55;3.38;;;3.08;;
46377;SDS011;32083;47.360;9.650;2023-06-14T17:05:21;6.10;;;3.33;;
46377;SDS011;32083;47.360;9.650;2023-06-14T17:07:47;5.03;;;3.35;;
46377;SDS011;32083;47.360;9.650;2023-06-14T17:10:13;5.85;;;3.22;;
46377;SDS011;32083;47.360;9.650;2023-06-14T17:12:39;6.07;;;3.78;;
46377;SDS011;32083;47.360;9.650;2023-06-14T17:15:06;5.30;;;3.20;;
46377;SDS011;32083;47.360;9.650;2023-06-14T17:17:32;2.92;;;2.60;;
46377;SDS011;32083;47.360;9.650;2023-06-14T17:19:58;4.75;;;3.50;;
46377;SDS011;32083;47.360;9.650;2023-06-14T17:22:24;4.70;;;2.90;;
46377;SDS011;32083;47.360;9.650;2023-06-14T17:24:50;6.72;;;3.30;;
46377;SDS011;32083;47.360;9.650;2023-06-14T17:27:17;4.90;;;3.30;;
46377;SDS011;32083;47.360;9.650;2023-06-14T17:29:44;5.32;;;3.15;;
46377;SDS011;32083;47.360;9.650;2023-06-14T17:32:09;3.38;;;2.97;;
46377;SDS011;32083;47.360;9.650;2023-06-14T17:34:36;5.05;;;3.00;;
46377;SDS011;32083;47.360;9.650;2023-06-14T17:37:02;5.15;;;3.30;;
46377;SDS011;32083;47.360;9.650;2023-06-14T17:39:28;4.57;;;3.22;;
46377;SDS011;32083;47.360;9.650;2023-06-14T17:41:54;5.43;;;3.60;;
46377;SDS011;32083;47.360;9.650;2023-06-14T17:44:20;3.80;;;2.70;;
46377;SDS011;32083;47.360;9.650;2023-06-14T17:46:46;7.32;;;3.05;;
46377;SDS011;32083;47.360;9.650;2023-06-14T17:49:12;4.97;;;3.28;;
46377;SDS011;32083;47.360;9.650;2023-06-14T17:51:38;9.80;;;3.83;;
46377;SDS011;32083;47.360;9.650;2023-06-14T17:54:04;4.93;;;3.40;;
46377;SDS011;32083;47.360;9.650;2023-06-14T17:56:31;3.33;;;3.03;;
46377;SDS011;32083;47.360;9.650;2023-06-14T17:58:57;3.88;;;2.90;;
46377;SDS011;32083;47.360;9.650;2023-06-14T18:01:24;4.30;;;3.03;;
46377;SDS011;32083;47.360;9.650;2023-06-14T18:03:50;4.55;;;3.55;;
46377;SDS011;32083;47.360;9.650;2023-06-14T18:06:16;7.80;;;3.40;;
46377;SDS011;32083;47.360;9.650;2023-06-14T18:08:43;5.18;;;2.92;;
46377;SDS011;32083;47.360;9.650;2023-06-14T18:11:12;3.17;;;2.95;;
46377;SDS011;32083;47.360;9.650;2023-06-14T18:13:38;4.10;;;3.15;;
46377;SDS011;32083;47.360;9.650;2023-06-14T18:16:04;4.25;;;3.47;;
46377;SDS011;32083;47.360;9.650;2023-06-14T18:18:30;4.95;;;3.03;;
46377;SDS011;32083;47.360;9.650;2023-06-14T18:20:56;4.63;;;3.47;;
46377;SDS011;32083;47.360;9.650;2023-06-14T18:23:22;5.25;;;3.10;;
46377;SDS011;32083;47.360;9.650;2023-06-14T18:25:49;4.47;;;3.35;;
46377;SDS011;32083;47.360;9.650;2023-06-14T18:28:15;6.72;;;3.50;;
46377;SDS011;32083;47.360;9.650;2023-06-14T18:30:41;4.65;;;3.15;;
46377;SDS011;32083;47.360;9.650;2023-06-14T18:33:07;3.38;;;3.05;;
46377;SDS011;32083;47.360;9.650;2023-06-14T18:35:33;3.10;;;2.80;;
46377;SDS011;32083;47.360;9.650;2023-06-14T18:37:59;3.67;;;3.13;;
46377;SDS011;32083;47.360;9.650;2023-06-14T18:40:24;3.97;;;3.30;;
46377;SDS011;32083;47.360;9.650;2023-06-14T18:42:50;5.95;;;3.08;;
46377;SDS011;32083;47.360;9.650;2023-06-14T18:45:16;4.03;;;2.95;;
46377;SDS011;32083;47.360;9.650;2023-06-14T18:47:42;7.13;;;3.55;;
46377;SDS011;32083;47.360;9.650;2023-06-14T18:50:08;5.65;;;3.53;;
46377;SDS011;32083;47.360;9.650;2023-06-14T18:52:34;5.63;;;3.47;;
46377;SDS011;32083;47.360;9.650;2023-06-14T18:55:00;4.32;;;3.35;;
46377;SDS011;32083;47.360;9.650;2023-06-14T18:57:26;5.00;;;3.33;;
46377;SDS011;32083;47.360;9.650;2023-06-14T18:59:52;5.53;;;3.00;;
46377;SDS011;32083;47.360;9.650;2023-06-14T19:02:18;8.00;;;3.55;;
46377;SDS011;32083;47.360;9.650;2023-06-14T19:04:44;4.13;;;3.40;;
46377;SDS011;32083;47.360;9.650;2023-06-14T19:07:10;5.57;;;3.10;;
46377;SDS011;32083;47.360;9.650;2023-06-14T19:09:36;7.97;;;3.42;;
46377;SDS011;32083;47.360;9.650;2023-06-14T19:12:02;7.55;;;4.45;;
46377;SDS011;32083;47.360;9.650;2023-06-14T19:14:29;4.03;;;3.65;;
46377;SDS011;32083;47.360;9.650;2023-06-14T19:16:55;4.75;;;3.17;;
46377;SDS011;32083;47.360;9.650;2023-06-14T19:19:21;7.72;;;4.88;;
46377;SDS011;32083;47.360;9.650;2023-06-14T19:21:46;5.50;;;4.40;;
46377;SDS011;32083;47.360;9.650;2023-06-14T19:24:12;5.57;;;4.13;;
46377;SDS011;32083;47.360;9.650;2023-06-14T19:26:41;4.07;;;3.00;;
46377;SDS011;32083;47.360;9.650;2023-06-14T19:29:08;8.48;;;3.50;;
46377;SDS011;32083;47.360;9.650;2023-06-14T19:31:34;7.50;;;4.00;;
46377;SDS011;32083;47.360;9.650;2023-06-14T19:34:01;3.70;;;3.22;;
46377;SDS011;32083;47.360;9.650;2023-06-14T19:36:27;5.50;;;3.78;;
46377;SDS011;32083;47.360;9.650;2023-06-14T19:38:53;4.85;;;3.42;;
46377;SDS011;32083;47.360;9.650;2023-06-14T19:41:20;7.65;;;3.92;;
46377;SDS011;32083;47.360;9.650;2023-06-14T19:43:46;6.72;;;3.95;;